Pagrindinis puslapis
METAR-TAF:

METAR-TAF

Oro uostai :

Pchenjanas, Šiaurės Korėja

platuma: 39-02N, ilguma: 125-47E, Aukštis: 36 m

METAR: trūkstamas

Laikas: 13:00 (04:30 UTC)

Prognozė

Ataskaita buvo paskelbta 7 valandos ir 20 minutes, ne 21:10 UTC
Prognozė galioja nuo 18 metu 00 UTC su 18 metu 24 UTC
Vėjas 8 kt iš Pietų/Pietvakarių
Matomumas: 5000 m
rūkana
Tapsmas
nuo 18 metu 02 UTC su 18 metu 04 UTC
Vėjas 10 kt iš Vakarų
Matomumas 10 km arba daugiau
Su prošvaistėmis ne aukštis 2000 ft

TAF: ZKPY 172110Z 1800/1824 21004MPS 5000 BR NSC TX28/1806Z TN20/1821Z BECMG 1802/1804 28005MPS 9999 BKN020

Orai ataskaitas ir orų prognozės (METAR, TAF).

turimą stotys yra geltonos ir raudonos taškus žemėlapyje.

Perkelti pele per norėdami pamatyti stoties vardą.

Tada spustelėkite, norėdami matyti oro stebėjimo ir prognozės.

Norėdami pakeisti žemėlapį: spustelėkite ant žalios mygtukų su juodo kryžiaus žemyn,; žalią mygtuką su brūkšneliu, jei norite nutolinti; arba žalių rodyklių gretimoms žemėlapius.


METAR-TAF: